createdAt,value
2023-01-19T00:00:33.124Z,20.3
2023-01-19T00:15:32.595Z,20.3
2023-01-19T00:30:32.715Z,20.2
2023-01-19T00:45:32.221Z,20.2
2023-01-19T01:00:32.670Z,20.2
2023-01-19T01:15:32.789Z,20.2
2023-01-19T01:30:32.108Z,20.2
2023-01-19T01:45:32.074Z,20.2
2023-01-19T02:00:32.564Z,20.2
2023-01-19T02:15:32.192Z,20.3
2023-01-19T02:30:31.908Z,20.3
2023-01-19T02:45:32.050Z,20.3
2023-01-19T03:00:32.091Z,20.3
2023-01-19T03:15:32.168Z,20.3
2023-01-19T03:30:32.040Z,20.3
2023-01-19T03:45:31.850Z,20.3
2023-01-19T04:00:32.678Z,20.3
2023-01-19T04:15:32.054Z,20.3
2023-01-19T04:30:32.016Z,20.3
2023-01-19T04:45:32.637Z,20.3
2023-01-19T05:00:32.240Z,20.3
2023-01-19T05:15:32.180Z,20.3
2023-01-19T05:30:32.171Z,20.3
2023-01-19T05:45:31.983Z,20.3
2023-01-19T06:00:33.776Z,20.2
2023-01-19T06:15:32.189Z,20.2
2023-01-19T06:30:34.457Z,20.2
2023-01-19T06:45:32.634Z,20.3
2023-01-19T07:00:35.444Z,20.4
2023-01-19T07:15:32.895Z,20.5
2023-01-19T07:30:35.308Z,20.6
2023-01-19T07:45:32.532Z,20.6
2023-01-19T08:00:35.122Z,20.7
2023-01-19T08:15:32.135Z,20.8
2023-01-19T08:30:32.726Z,20.9
2023-01-19T08:45:31.996Z,20.9
2023-01-19T09:00:33.646Z,21.0
2023-01-19T09:15:31.951Z,21
2023-01-19T09:30:32.765Z,21.1
2023-01-19T09:45:32.598Z,21.2
2023-01-19T10:00:35.885Z,21.2
2023-01-19T10:15:32.777Z,21.3
2023-01-19T10:30:32.259Z,21.3
2023-01-19T10:45:34.387Z,21.4
2023-01-19T11:00:32.444Z,21.5
2023-01-19T11:15:32.390Z,21.7
2023-01-19T11:30:32.873Z,21.8
2023-01-19T11:45:31.961Z,21.9
2023-01-19T12:00:35.436Z,21.9
2023-01-19T12:15:32.744Z,21.9
2023-01-19T12:30:32.702Z,21.9
2023-01-19T12:45:32.402Z,21.9
2023-01-19T13:00:33.837Z,22.0
2023-01-19T13:15:32.390Z,22
2023-01-19T13:30:32.039Z,22
2023-01-19T13:45:31.986Z,22.1
2023-01-19T14:00:34.990Z,22.1
2023-01-19T14:15:32.727Z,22.1
2023-01-19T14:30:32.132Z,22.1
2023-01-19T14:45:32.731Z,22.1
2023-01-19T15:00:35.362Z,22.1
2023-01-19T15:15:32.203Z,22.0
2023-01-19T15:30:32.589Z,21.9
2023-01-19T15:45:32.860Z,21.8
2023-01-19T16:00:36.372Z,21.7
2023-01-19T16:15:32.106Z,21.7
2023-01-19T16:30:34.857Z,21.6
2023-01-19T16:45:32.330Z,21.5
2023-01-19T17:00:37.022Z,21.5
2023-01-19T17:15:32.503Z,21.5
2023-01-19T17:30:32.878Z,21.4
2023-01-19T17:45:31.996Z,21.4
2023-01-19T18:00:35.473Z,21.3
2023-01-19T18:15:32.281Z,21.3
2023-01-19T18:30:33.288Z,21.2
2023-01-19T18:45:32.814Z,21.2
2023-01-19T19:00:36.675Z,21.1
2023-01-19T19:15:32.238Z,21.0
2023-01-19T19:30:33.077Z,21.0
2023-01-19T19:45:32.281Z,21
2023-01-19T20:00:34.969Z,20.9
2023-01-19T20:15:33.019Z,20.9
2023-01-19T20:30:32.710Z,20.8
2023-01-19T20:45:32.183Z,20.8
2023-01-19T21:00:33.635Z,20.8
2023-01-19T21:15:32.405Z,20.7
2023-01-19T21:30:32.279Z,20.7
2023-01-19T21:45:32.898Z,20.7
2023-01-19T22:00:33.085Z,20.6
2023-01-19T22:15:32.508Z,20.6
2023-01-19T22:30:32.042Z,20.6
2023-01-19T22:45:32.510Z,20.6
2023-01-19T23:00:32.383Z,20.6
2023-01-19T23:15:31.889Z,20.5
2023-01-19T23:30:32.223Z,20.5
2023-01-19T23:45:31.877Z,20.5
